sensor_id;sensor_type;location;lat;lon;timestamp;P1;durP1;ratioP1;P2;durP2;ratioP2
73023;SDS011;61199;47.526;8.538;2023-02-28T00:00:34;11.03;;;6.50;;
73023;SDS011;61199;47.526;8.538;2023-02-28T00:03:02;10.70;;;6.63;;
73023;SDS011;61199;47.526;8.538;2023-02-28T00:05:29;13.13;;;6.50;;
73023;SDS011;61199;47.526;8.538;2023-02-28T00:07:56;15.30;;;6.73;;
73023;SDS011;61199;47.526;8.538;2023-02-28T00:10:24;8.23;;;6.37;;
73023;SDS011;61199;47.526;8.538;2023-02-28T00:12:53;12.77;;;7.00;;
73023;SDS011;61199;47.526;8.538;2023-02-28T00:15:23;15.20;;;7.67;;
73023;SDS011;61199;47.526;8.538;2023-02-28T00:17:49;9.90;;;6.80;;
73023;SDS011;61199;47.526;8.538;2023-02-28T00:20:16;12.57;;;7.40;;
73023;SDS011;61199;47.526;8.538;2023-02-28T00:22:47;10.33;;;6.50;;
73023;SDS011;61199;47.526;8.538;2023-02-28T00:25:17;14.27;;;7.10;;
73023;SDS011;61199;47.526;8.538;2023-02-28T00:27:45;11.83;;;7.60;;
73023;SDS011;61199;47.526;8.538;2023-02-28T00:30:13;12.83;;;7.87;;
73023;SDS011;61199;47.526;8.538;2023-02-28T00:32:42;16.50;;;7.80;;
73023;SDS011;61199;47.526;8.538;2023-02-28T00:35:09;12.00;;;7.50;;
73023;SDS011;61199;47.526;8.538;2023-02-28T00:37:37;12.80;;;7.93;;
73023;SDS011;61199;47.526;8.538;2023-02-28T00:40:04;13.77;;;7.30;;
73023;SDS011;61199;47.526;8.538;2023-02-28T00:42:32;13.63;;;7.10;;
73023;SDS011;61199;47.526;8.538;2023-02-28T00:45:00;12.20;;;7.53;;
73023;SDS011;61199;47.526;8.538;2023-02-28T00:47:27;12.57;;;7.33;;
73023;SDS011;61199;47.526;8.538;2023-02-28T00:49:54;11.50;;;7.30;;
73023;SDS011;61199;47.526;8.538;2023-02-28T00:52:20;14.10;;;8.60;;
73023;SDS011;61199;47.526;8.538;2023-02-28T00:54:47;14.23;;;8.13;;
73023;SDS011;61199;47.526;8.538;2023-02-28T00:57:14;11.70;;;7.20;;
73023;SDS011;61199;47.526;8.538;2023-02-28T00:59:40;12.03;;;7.53;;
73023;SDS011;61199;47.526;8.538;2023-02-28T01:02:06;10.33;;;6.93;;
73023;SDS011;61199;47.526;8.538;2023-02-28T01:04:33;15.60;;;8.03;;
73023;SDS011;61199;47.526;8.538;2023-02-28T01:06:59;11.80;;;7.13;;
73023;SDS011;61199;47.526;8.538;2023-02-28T01:09:26;14.27;;;8.07;;
73023;SDS011;61199;47.526;8.538;2023-02-28T01:11:52;12.73;;;7.93;;
73023;SDS011;61199;47.526;8.538;2023-02-28T01:14:18;10.53;;;7.10;;
73023;SDS011;61199;47.526;8.538;2023-02-28T01:16:45;12.83;;;7.67;;
73023;SDS011;61199;47.526;8.538;2023-02-28T01:19:11;14.43;;;7.70;;
73023;SDS011;61199;47.526;8.538;2023-02-28T01:21:38;14.50;;;8.37;;
73023;SDS011;61199;47.526;8.538;2023-02-28T01:24:04;17.23;;;7.87;;
73023;SDS011;61199;47.526;8.538;2023-02-28T01:26:31;14.60;;;8.10;;
73023;SDS011;61199;47.526;8.538;2023-02-28T01:28:58;15.20;;;8.57;;
73023;SDS011;61199;47.526;8.538;2023-02-28T01:31:24;13.83;;;7.70;;
73023;SDS011;61199;47.526;8.538;2023-02-28T01:33:51;13.63;;;8.20;;
73023;SDS011;61199;47.526;8.538;2023-02-28T01:36:18;13.87;;;8.30;;
73023;SDS011;61199;47.526;8.538;2023-02-28T01:38:47;12.53;;;7.70;;
73023;SDS011;61199;47.526;8.538;2023-02-28T01:41:18;11.97;;;7.23;;
73023;SDS011;61199;47.526;8.538;2023-02-28T01:46:13;14.10;;;7.93;;
73023;SDS011;61199;47.526;8.538;2023-02-28T01:48:51;16.47;;;8.83;;
73023;SDS011;61199;47.526;8.538;2023-02-28T01:54:09;17.63;;;8.47;;
73023;SDS011;61199;47.526;8.538;2023-02-28T01:56:41;12.73;;;8.27;;
73023;SDS011;61199;47.526;8.538;2023-02-28T01:59:17;15.80;;;8.80;;
73023;SDS011;61199;47.526;8.538;2023-02-28T02:01:49;14.33;;;8.03;;
73023;SDS011;61199;47.526;8.538;2023-02-28T02:04:16;16.17;;;9.47;;
73023;SDS011;61199;47.526;8.538;2023-02-28T02:06:43;15.20;;;7.60;;
73023;SDS011;61199;47.526;8.538;2023-02-28T02:09:11;11.77;;;7.80;;
73023;SDS011;61199;47.526;8.538;2023-02-28T02:11:39;15.20;;;8.43;;
73023;SDS011;61199;47.526;8.538;2023-02-28T02:20:06;12.20;;;7.27;;
73023;SDS011;61199;47.526;8.538;2023-02-28T02:23:07;12.70;;;7.53;;
73023;SDS011;61199;47.526;8.538;2023-02-28T02:25:58;13.63;;;7.90;;
73023;SDS011;61199;47.526;8.538;2023-02-28T02:28:54;13.53;;;7.97;;
73023;SDS011;61199;47.526;8.538;2023-02-28T02:36:58;12.17;;;7.70;;
73023;SDS011;61199;47.526;8.538;2023-02-28T02:42:16;11.77;;;7.43;;
73023;SDS011;61199;47.526;8.538;2023-02-28T02:44:53;11.07;;;6.93;;
73023;SDS011;61199;47.526;8.538;2023-02-28T02:47:31;15.83;;;8.13;;
73023;SDS011;61199;47.526;8.538;2023-02-28T02:50:01;13.57;;;8.27;;
73023;SDS011;61199;47.526;8.538;2023-02-28T02:52:34;15.20;;;8.43;;
73023;SDS011;61199;47.526;8.538;2023-02-28T02:55:08;13.57;;;7.73;;
73023;SDS011;61199;47.526;8.538;2023-02-28T02:57:40;12.60;;;7.77;;
73023;SDS011;61199;47.526;8.538;2023-02-28T03:00:13;12.50;;;7.57;;
73023;SDS011;61199;47.526;8.538;2023-02-28T03:02:43;12.30;;;8.30;;
73023;SDS011;61199;47.526;8.538;2023-02-28T03:05:14;13.40;;;6.87;;
73023;SDS011;61199;47.526;8.538;2023-02-28T03:07:45;11.10;;;7.40;;
73023;SDS011;61199;47.526;8.538;2023-02-28T03:10:31;12.37;;;7.80;;
73023;SDS011;61199;47.526;8.538;2023-02-28T03:13:12;11.20;;;7.23;;
73023;SDS011;61199;47.526;8.538;2023-02-28T03:16:27;12.50;;;7.50;;
73023;SDS011;61199;47.526;8.538;2023-02-28T03:24:43;14.63;;;7.53;;
73023;SDS011;61199;47.526;8.538;2023-02-28T03:27:27;11.30;;;7.10;;
73023;SDS011;61199;47.526;8.538;2023-02-28T03:30:06;14.67;;;8.20;;
73023;SDS011;61199;47.526;8.538;2023-02-28T03:33:01;12.27;;;7.40;;
73023;SDS011;61199;47.526;8.538;2023-02-28T03:35:37;11.80;;;7.43;;
73023;SDS011;61199;47.526;8.538;2023-02-28T03:38:10;13.47;;;7.13;;
73023;SDS011;61199;47.526;8.538;2023-02-28T03:40:43;12.23;;;6.50;;
73023;SDS011;61199;47.526;8.538;2023-02-28T03:43:17;12.40;;;7.73;;
73023;SDS011;61199;47.526;8.538;2023-02-28T03:45:48;13.60;;;6.93;;
73023;SDS011;61199;47.526;8.538;2023-02-28T03:48:25;12.23;;;7.87;;
73023;SDS011;61199;47.526;8.538;2023-02-28T03:50:57;11.50;;;8.20;;
73023;SDS011;61199;47.526;8.538;2023-02-28T03:53:36;13.13;;;7.73;;
73023;SDS011;61199;47.526;8.538;2023-02-28T03:56:18;9.40;;;6.63;;
73023;SDS011;61199;47.526;8.538;2023-02-28T03:59:07;12.83;;;7.27;;
73023;SDS011;61199;47.526;8.538;2023-02-28T04:01:40;15.33;;;6.90;;
73023;SDS011;61199;47.526;8.538;2023-02-28T04:04:09;13.33;;;7.30;;
73023;SDS011;61199;47.526;8.538;2023-02-28T04:06:37;11.73;;;6.30;;
73023;SDS011;61199;47.526;8.538;2023-02-28T04:09:06;9.13;;;6.60;;
73023;SDS011;61199;47.526;8.538;2023-02-28T04:11:44;11.73;;;6.83;;
73023;SDS011;61199;47.526;8.538;2023-02-28T04:14:14;13.07;;;6.80;;
73023;SDS011;61199;47.526;8.538;2023-02-28T04:16:41;11.43;;;6.33;;
73023;SDS011;61199;47.526;8.538;2023-02-28T04:19:08;11.43;;;6.17;;
73023;SDS011;61199;47.526;8.538;2023-02-28T04:21:54;15.87;;;6.30;;
73023;SDS011;61199;47.526;8.538;2023-02-28T04:24:22;11.07;;;6.93;;
73023;SDS011;61199;47.526;8.538;2023-02-28T04:26:52;10.50;;;6.43;;
73023;SDS011;61199;47.526;8.538;2023-02-28T04:29:26;10.40;;;6.10;;
73023;SDS011;61199;47.526;8.538;2023-02-28T04:31:54;14.30;;;6.70;;
73023;SDS011;61199;47.526;8.538;2023-02-28T04:34:24;11.47;;;6.57;;
73023;SDS011;61199;47.526;8.538;2023-02-28T04:36:52;16.40;;;7.27;;
73023;SDS011;61199;47.526;8.538;2023-02-28T04:39:37;9.37;;;6.20;;
73023;SDS011;61199;47.526;8.538;2023-02-28T04:42:04;14.63;;;6.50;;
73023;SDS011;61199;47.526;8.538;2023-02-28T04:44:30;10.53;;;6.30;;
73023;SDS011;61199;47.526;8.538;2023-02-28T04:46:57;10.13;;;5.77;;
73023;SDS011;61199;47.526;8.538;2023-02-28T04:49:24;11.70;;;6.50;;
73023;SDS011;61199;47.526;8.538;2023-02-28T04:51:50;16.63;;;7.00;;
73023;SDS011;61199;47.526;8.538;2023-02-28T04:54:16;10.90;;;6.30;;
73023;SDS011;61199;47.526;8.538;2023-02-28T04:56:44;11.33;;;6.50;;
73023;SDS011;61199;47.526;8.538;2023-02-28T04:59:10;9.70;;;6.00;;
73023;SDS011;61199;47.526;8.538;2023-02-28T05:01:37;10.83;;;6.50;;
73023;SDS011;61199;47.526;8.538;2023-02-28T05:04:03;11.77;;;6.30;;
73023;SDS011;61199;47.526;8.538;2023-02-28T05:06:31;9.70;;;6.07;;
73023;SDS011;61199;47.526;8.538;2023-02-28T05:08:58;12.60;;;6.47;;
73023;SDS011;61199;47.526;8.538;2023-02-28T05:11:27;9.67;;;6.63;;
73023;SDS011;61199;47.526;8.538;2023-02-28T05:13:59;10.93;;;6.10;;
73023;SDS011;61199;47.526;8.538;2023-02-28T05:16:30;10.80;;;6.83;;
73023;SDS011;61199;47.526;8.538;2023-02-28T05:18:57;10.20;;;6.13;;
73023;SDS011;61199;47.526;8.538;2023-02-28T05:21:34;10.80;;;6.70;;
73023;SDS011;61199;47.526;8.538;2023-02-28T05:24:04;9.53;;;6.50;;
73023;SDS011;61199;47.526;8.538;2023-02-28T05:26:35;12.07;;;6.67;;
73023;SDS011;61199;47.526;8.538;2023-02-28T05:29:07;10.27;;;6.50;;
73023;SDS011;61199;47.526;8.538;2023-02-28T05:31:35;11.33;;;6.73;;
73023;SDS011;61199;47.526;8.538;2023-02-28T05:34:02;9.63;;;6.50;;
73023;SDS011;61199;47.526;8.538;2023-02-28T05:36:30;10.63;;;7.00;;
73023;SDS011;61199;47.526;8.538;2023-02-28T05:38:56;12.20;;;6.70;;
73023;SDS011;61199;47.526;8.538;2023-02-28T05:41:23;10.17;;;6.70;;
73023;SDS011;61199;47.526;8.538;2023-02-28T05:43:49;12.97;;;6.77;;
73023;SDS011;61199;47.526;8.538;2023-02-28T05:46:15;9.60;;;6.77;;
73023;SDS011;61199;47.526;8.538;2023-02-28T05:48:45;9.67;;;6.50;;
73023;SDS011;61199;47.526;8.538;2023-02-28T05:51:13;10.60;;;6.37;;
73023;SDS011;61199;47.526;8.538;2023-02-28T05:53:39;10.77;;;6.13;;
73023;SDS011;61199;47.526;8.538;2023-02-28T05:56:06;12.50;;;6.27;;
73023;SDS011;61199;47.526;8.538;2023-02-28T05:58:32;9.10;;;5.90;;
73023;SDS011;61199;47.526;8.538;2023-02-28T06:00:59;10.23;;;5.87;;
73023;SDS011;61199;47.526;8.538;2023-02-28T06:03:27;10.20;;;6.20;;
73023;SDS011;61199;47.526;8.538;2023-02-28T06:05:53;10.63;;;6.37;;
73023;SDS011;61199;47.526;8.538;2023-02-28T06:08:20;10.57;;;6.10;;
73023;SDS011;61199;47.526;8.538;2023-02-28T06:10:46;10.60;;;6.33;;
73023;SDS011;61199;47.526;8.538;2023-02-28T06:13:13;10.83;;;6.47;;
73023;SDS011;61199;47.526;8.538;2023-02-28T06:15:39;14.43;;;6.97;;
73023;SDS011;61199;47.526;8.538;2023-02-28T06:18:06;13.60;;;6.80;;
73023;SDS011;61199;47.526;8.538;2023-02-28T06:20:32;13.23;;;7.10;;
73023;SDS011;61199;47.526;8.538;2023-02-28T06:22:59;8.80;;;5.97;;
73023;SDS011;61199;47.526;8.538;2023-02-28T06:25:26;10.90;;;6.83;;
73023;SDS011;61199;47.526;8.538;2023-02-28T06:27:54;9.87;;;6.13;;
73023;SDS011;61199;47.526;8.538;2023-02-28T06:30:21;16.50;;;6.90;;
73023;SDS011;61199;47.526;8.538;2023-02-28T06:32:53;9.57;;;6.40;;
73023;SDS011;61199;47.526;8.538;2023-02-28T06:35:20;13.37;;;7.10;;
73023;SDS011;61199;47.526;8.538;2023-02-28T06:37:47;11.00;;;7.57;;
73023;SDS011;61199;47.526;8.538;2023-02-28T06:40:14;14.83;;;7.00;;
73023;SDS011;61199;47.526;8.538;2023-02-28T06:42:40;8.63;;;6.27;;
73023;SDS011;61199;47.526;8.538;2023-02-28T06:45:07;11.57;;;6.97;;
73023;SDS011;61199;47.526;8.538;2023-02-28T06:47:36;12.67;;;7.67;;
73023;SDS011;61199;47.526;8.538;2023-02-28T06:50:11;11.57;;;6.77;;
73023;SDS011;61199;47.526;8.538;2023-02-28T06:52:39;11.67;;;7.53;;
73023;SDS011;61199;47.526;8.538;2023-02-28T06:55:05;9.87;;;7.27;;
73023;SDS011;61199;47.526;8.538;2023-02-28T06:57:33;12.20;;;7.07;;
73023;SDS011;61199;47.526;8.538;2023-02-28T07:00:03;13.57;;;8.93;;
73023;SDS011;61199;47.526;8.538;2023-02-28T07:02:34;14.70;;;8.23;;
73023;SDS011;61199;47.526;8.538;2023-02-28T07:05:01;12.37;;;7.67;;
73023;SDS011;61199;47.526;8.538;2023-02-28T07:07:28;14.03;;;8.30;;
73023;SDS011;61199;47.526;8.538;2023-02-28T07:09:54;17.87;;;8.20;;
73023;SDS011;61199;47.526;8.538;2023-02-28T07:12:20;12.00;;;7.30;;
73023;SDS011;61199;47.526;8.538;2023-02-28T07:14:47;15.40;;;8.40;;
73023;SDS011;61199;47.526;8.538;2023-02-28T07:17:13;14.60;;;8.60;;
73023;SDS011;61199;47.526;8.538;2023-02-28T07:19:40;17.40;;;8.60;;
73023;SDS011;61199;47.526;8.538;2023-02-28T07:22:06;13.17;;;8.03;;
73023;SDS011;61199;47.526;8.538;2023-02-28T07:24:33;16.90;;;8.37;;
73023;SDS011;61199;47.526;8.538;2023-02-28T07:27:00;12.73;;;8.70;;
73023;SDS011;61199;47.526;8.538;2023-02-28T07:29:27;16.00;;;9.23;;
73023;SDS011;61199;47.526;8.538;2023-02-28T07:31:54;17.27;;;9.87;;
73023;SDS011;61199;47.526;8.538;2023-02-28T07:34:20;13.90;;;9.00;;
73023;SDS011;61199;47.526;8.538;2023-02-28T07:36:47;13.30;;;8.03;;
73023;SDS011;61199;47.526;8.538;2023-02-28T07:39:13;15.33;;;9.00;;
73023;SDS011;61199;47.526;8.538;2023-02-28T07:41:39;17.07;;;9.87;;
73023;SDS011;61199;47.526;8.538;2023-02-28T07:44:10;15.80;;;9.73;;
73023;SDS011;61199;47.526;8.538;2023-02-28T07:46:37;18.83;;;9.50;;
73023;SDS011;61199;47.526;8.538;2023-02-28T07:49:04;14.13;;;9.03;;
73023;SDS011;61199;47.526;8.538;2023-02-28T07:51:31;17.23;;;9.13;;
73023;SDS011;61199;47.526;8.538;2023-02-28T07:53:58;12.80;;;8.70;;
73023;SDS011;61199;47.526;8.538;2023-02-28T07:56:24;13.67;;;9.17;;
73023;SDS011;61199;47.526;8.538;2023-02-28T07:58:51;18.47;;;10.10;;
73023;SDS011;61199;47.526;8.538;2023-02-28T08:01:17;16.50;;;9.00;;
73023;SDS011;61199;47.526;8.538;2023-02-28T08:03:45;15.40;;;9.10;;
73023;SDS011;61199;47.526;8.538;2023-02-28T08:06:19;16.57;;;9.10;;
73023;SDS011;61199;47.526;8.538;2023-02-28T08:08:48;13.73;;;8.50;;
73023;SDS011;61199;47.526;8.538;2023-02-28T08:11:15;16.17;;;10.07;;
73023;SDS011;61199;47.526;8.538;2023-02-28T08:13:43;14.60;;;9.73;;
73023;SDS011;61199;47.526;8.538;2023-02-28T08:16:11;16.60;;;10.13;;
73023;SDS011;61199;47.526;8.538;2023-02-28T08:18:43;15.33;;;8.97;;
73023;SDS011;61199;47.526;8.538;2023-02-28T08:21:10;17.57;;;10.70;;
73023;SDS011;61199;47.526;8.538;2023-02-28T08:23:37;19.07;;;10.20;;
73023;SDS011;61199;47.526;8.538;2023-02-28T08:26:04;16.30;;;9.37;;
73023;SDS011;61199;47.526;8.538;2023-02-28T08:28:30;16.53;;;9.40;;
73023;SDS011;61199;47.526;8.538;2023-02-28T08:30:57;18.73;;;9.13;;
73023;SDS011;61199;47.526;8.538;2023-02-28T08:33:24;14.00;;;9.70;;
73023;SDS011;61199;47.526;8.538;2023-02-28T08:35:52;14.63;;;9.27;;
73023;SDS011;61199;47.526;8.538;2023-02-28T08:38:20;17.80;;;9.53;;
73023;SDS011;61199;47.526;8.538;2023-02-28T08:40:47;18.93;;;9.67;;
73023;SDS011;61199;47.526;8.538;2023-02-28T08:43:13;20.57;;;10.70;;
73023;SDS011;61199;47.526;8.538;2023-02-28T08:45:40;14.93;;;9.20;;
73023;SDS011;61199;47.526;8.538;2023-02-28T08:48:06;13.10;;;9.30;;
73023;SDS011;61199;47.526;8.538;2023-02-28T08:50:33;14.63;;;8.87;;
73023;SDS011;61199;47.526;8.538;2023-02-28T08:52:59;14.63;;;8.80;;
73023;SDS011;61199;47.526;8.538;2023-02-28T08:55:26;15.67;;;9.90;;
73023;SDS011;61199;47.526;8.538;2023-02-28T08:57:52;13.90;;;9.63;;
73023;SDS011;61199;47.526;8.538;2023-02-28T09:00:18;17.37;;;9.60;;
73023;SDS011;61199;47.526;8.538;2023-02-28T09:02:45;14.40;;;9.57;;
73023;SDS011;61199;47.526;8.538;2023-02-28T09:05:12;12.97;;;9.17;;
73023;SDS011;61199;47.526;8.538;2023-02-28T09:07:38;15.03;;;10.20;;
73023;SDS011;61199;47.526;8.538;2023-02-28T09:10:04;19.90;;;11.13;;
73023;SDS011;61199;47.526;8.538;2023-02-28T09:12:32;19.07;;;9.73;;
73023;SDS011;61199;47.526;8.538;2023-02-28T09:15:01;20.80;;;10.20;;
73023;SDS011;61199;47.526;8.538;2023-02-28T09:17:27;19.27;;;9.73;;
73023;SDS011;61199;47.526;8.538;2023-02-28T09:19:56;16.83;;;9.60;;
73023;SDS011;61199;47.526;8.538;2023-02-28T09:22:23;18.00;;;9.10;;
73023;SDS011;61199;47.526;8.538;2023-02-28T09:24:49;18.97;;;9.53;;
73023;SDS011;61199;47.526;8.538;2023-02-28T09:27:16;14.67;;;9.70;;
73023;SDS011;61199;47.526;8.538;2023-02-28T09:29:42;12.60;;;8.70;;
73023;SDS011;61199;47.526;8.538;2023-02-28T09:32:09;15.67;;;9.63;;
73023;SDS011;61199;47.526;8.538;2023-02-28T09:34:35;16.10;;;8.87;;
73023;SDS011;61199;47.526;8.538;2023-02-28T09:37:03;14.97;;;9.10;;
73023;SDS011;61199;47.526;8.538;2023-02-28T09:39:29;15.80;;;10.20;;
73023;SDS011;61199;47.526;8.538;2023-02-28T09:41:56;17.30;;;9.97;;
73023;SDS011;61199;47.526;8.538;2023-02-28T09:44:35;14.07;;;9.13;;
73023;SDS011;61199;47.526;8.538;2023-02-28T09:47:18;14.97;;;9.37;;
73023;SDS011;61199;47.526;8.538;2023-02-28T09:49:47;19.13;;;9.93;;
73023;SDS011;61199;47.526;8.538;2023-02-28T09:52:48;16.27;;;9.67;;
73023;SDS011;61199;47.526;8.538;2023-02-28T09:55:18;14.57;;;8.90;;
73023;SDS011;61199;47.526;8.538;2023-02-28T09:57:45;16.60;;;10.30;;
73023;SDS011;61199;47.526;8.538;2023-02-28T10:05:59;16.87;;;10.70;;
73023;SDS011;61199;47.526;8.538;2023-02-28T10:08:42;18.40;;;10.00;;
73023;SDS011;61199;47.526;8.538;2023-02-28T10:11:19;17.90;;;11.07;;
73023;SDS011;61199;47.526;8.538;2023-02-28T10:14:00;20.50;;;10.33;;
73023;SDS011;61199;47.526;8.538;2023-02-28T10:16:58;14.17;;;9.67;;
73023;SDS011;61199;47.526;8.538;2023-02-28T10:19:40;16.17;;;10.53;;
73023;SDS011;61199;47.526;8.538;2023-02-28T10:22:25;15.37;;;9.20;;
73023;SDS011;61199;47.526;8.538;2023-02-28T10:24:55;17.00;;;10.03;;
73023;SDS011;61199;47.526;8.538;2023-02-28T10:27:31;23.83;;;10.93;;
73023;SDS011;61199;47.526;8.538;2023-02-28T10:29:59;17.00;;;11.00;;
73023;SDS011;61199;47.526;8.538;2023-02-28T10:32:34;14.10;;;9.57;;
73023;SDS011;61199;47.526;8.538;2023-02-28T10:35:10;18.83;;;11.30;;
73023;SDS011;61199;47.526;8.538;2023-02-28T10:37:54;15.10;;;9.83;;
73023;SDS011;61199;47.526;8.538;2023-02-28T10:42:56;17.90;;;11.07;;
73023;SDS011;61199;47.526;8.538;2023-02-28T10:45:52;18.80;;;10.90;;
73023;SDS011;61199;47.526;8.538;2023-02-28T11:03:51;18.67;;;10.83;;
73023;SDS011;61199;47.526;8.538;2023-02-28T11:08:54;16.37;;;10.20;;
73023;SDS011;61199;47.526;8.538;2023-02-28T11:11:23;16.10;;;10.20;;
73023;SDS011;61199;47.526;8.538;2023-02-28T11:13:54;16.07;;;10.73;;
73023;SDS011;61199;47.526;8.538;2023-02-28T11:16:31;17.17;;;10.10;;
73023;SDS011;61199;47.526;8.538;2023-02-28T11:19:03;16.23;;;9.93;;
73023;SDS011;61199;47.526;8.538;2023-02-28T11:21:33;16.03;;;10.07;;
73023;SDS011;61199;47.526;8.538;2023-02-28T11:24:15;18.20;;;10.80;;
73023;SDS011;61199;47.526;8.538;2023-02-28T11:26:50;19.10;;;10.87;;
73023;SDS011;61199;47.526;8.538;2023-02-28T11:32:12;17.97;;;10.17;;
73023;SDS011;61199;47.526;8.538;2023-02-28T11:34:39;18.60;;;11.30;;
73023;SDS011;61199;47.526;8.538;2023-02-28T11:37:24;20.07;;;10.87;;
73023;SDS011;61199;47.526;8.538;2023-02-28T11:39:54;19.27;;;11.27;;
73023;SDS011;61199;47.526;8.538;2023-02-28T11:55:52;17.63;;;11.03;;
73023;SDS011;61199;47.526;8.538;2023-02-28T11:58:31;18.80;;;11.33;;
73023;SDS011;61199;47.526;8.538;2023-02-28T12:12:10;19.00;;;11.20;;
73023;SDS011;61199;47.526;8.538;2023-02-28T12:17:51;16.53;;;10.83;;
73023;SDS011;61199;47.526;8.538;2023-02-28T12:25:53;18.63;;;11.03;;
73023;SDS011;61199;47.526;8.538;2023-02-28T12:28:27;19.97;;;12.07;;
73023;SDS011;61199;47.526;8.538;2023-02-28T12:31:08;21.80;;;12.33;;
73023;SDS011;61199;47.526;8.538;2023-02-28T12:33:45;18.57;;;11.20;;
73023;SDS011;61199;47.526;8.538;2023-02-28T12:36:17;16.47;;;11.03;;
73023;SDS011;61199;47.526;8.538;2023-02-28T12:38:59;21.30;;;11.33;;
73023;SDS011;61199;47.526;8.538;2023-02-28T12:41:41;20.33;;;11.13;;
73023;SDS011;61199;47.526;8.538;2023-02-28T12:44:19;18.43;;;10.60;;
73023;SDS011;61199;47.526;8.538;2023-02-28T12:46:51;24.30;;;12.93;;
73023;SDS011;61199;47.526;8.538;2023-02-28T12:50:06;16.03;;;10.00;;
73023;SDS011;61199;47.526;8.538;2023-02-28T12:52:58;16.90;;;10.17;;
73023;SDS011;61199;47.526;8.538;2023-02-28T12:55:35;21.80;;;11.67;;
73023;SDS011;61199;47.526;8.538;2023-02-28T13:09:10;18.77;;;11.57;;
73023;SDS011;61199;47.526;8.538;2023-02-28T13:11:50;17.57;;;11.33;;
73023;SDS011;61199;47.526;8.538;2023-02-28T13:14:20;17.10;;;11.50;;
73023;SDS011;61199;47.526;8.538;2023-02-28T13:16:57;18.43;;;12.00;;
73023;SDS011;61199;47.526;8.538;2023-02-28T13:19:33;19.97;;;12.10;;
73023;SDS011;61199;47.526;8.538;2023-02-28T13:22:02;19.37;;;12.10;;
73023;SDS011;61199;47.526;8.538;2023-02-28T13:24:41;22.03;;;12.77;;
73023;SDS011;61199;47.526;8.538;2023-02-28T13:27:31;21.10;;;11.50;;
73023;SDS011;61199;47.526;8.538;2023-02-28T13:29:59;22.53;;;13.03;;
73023;SDS011;61199;47.526;8.538;2023-02-28T13:32:31;22.23;;;12.57;;
73023;SDS011;61199;47.526;8.538;2023-02-28T13:39:56;21.70;;;12.40;;
73023;SDS011;61199;47.526;8.538;2023-02-28T13:47:43;21.53;;;13.50;;
73023;SDS011;61199;47.526;8.538;2023-02-28T13:52:51;22.10;;;12.90;;
73023;SDS011;61199;47.526;8.538;2023-02-28T13:55:37;24.83;;;12.93;;
73023;SDS011;61199;47.526;8.538;2023-02-28T13:58:08;25.53;;;13.63;;
73023;SDS011;61199;47.526;8.538;2023-02-28T14:07:15;24.20;;;12.97;;
73023;SDS011;61199;47.526;8.538;2023-02-28T14:09:47;24.57;;;13.83;;
73023;SDS011;61199;47.526;8.538;2023-02-28T14:15:26;26.57;;;13.90;;
73023;SDS011;61199;47.526;8.538;2023-02-28T14:18:18;24.23;;;13.40;;
73023;SDS011;61199;47.526;8.538;2023-02-28T14:20:53;21.97;;;13.20;;
73023;SDS011;61199;47.526;8.538;2023-02-28T14:26:25;27.80;;;14.63;;
73023;SDS011;61199;47.526;8.538;2023-02-28T14:31:29;25.10;;;13.53;;
73023;SDS011;61199;47.526;8.538;2023-02-28T14:34:10;23.03;;;13.43;;
73023;SDS011;61199;47.526;8.538;2023-02-28T14:36:46;23.23;;;13.60;;
73023;SDS011;61199;47.526;8.538;2023-02-28T14:39:16;23.80;;;14.73;;
73023;SDS011;61199;47.526;8.538;2023-02-28T14:41:46;26.30;;;14.83;;
73023;SDS011;61199;47.526;8.538;2023-02-28T14:44:17;21.80;;;13.00;;
73023;SDS011;61199;47.526;8.538;2023-02-28T14:46:44;25.50;;;15.20;;
73023;SDS011;61199;47.526;8.538;2023-02-28T14:49:17;27.37;;;15.20;;
73023;SDS011;61199;47.526;8.538;2023-02-28T14:52:12;25.23;;;15.33;;
73023;SDS011;61199;47.526;8.538;2023-02-28T14:54:56;27.33;;;14.90;;
73023;SDS011;61199;47.526;8.538;2023-02-28T14:57:26;27.23;;;15.17;;
73023;SDS011;61199;47.526;8.538;2023-02-28T15:00:03;24.87;;;13.80;;
73023;SDS011;61199;47.526;8.538;2023-02-28T15:02:38;24.67;;;13.53;;
73023;SDS011;61199;47.526;8.538;2023-02-28T15:07:38;22.93;;;13.07;;
73023;SDS011;61199;47.526;8.538;2023-02-28T15:13:10;24.93;;;13.67;;
73023;SDS011;61199;47.526;8.538;2023-02-28T15:15:40;26.30;;;13.70;;
73023;SDS011;61199;47.526;8.538;2023-02-28T15:20:59;23.00;;;14.30;;
73023;SDS011;61199;47.526;8.538;2023-02-28T15:23:30;22.97;;;14.63;;
73023;SDS011;61199;47.526;8.538;2023-02-28T15:25:57;27.60;;;14.47;;
73023;SDS011;61199;47.526;8.538;2023-02-28T15:28:25;26.93;;;14.97;;
73023;SDS011;61199;47.526;8.538;2023-02-28T15:30:53;30.40;;;16.83;;
73023;SDS011;61199;47.526;8.538;2023-02-28T15:33:28;27.80;;;15.03;;
73023;SDS011;61199;47.526;8.538;2023-02-28T15:36:04;26.93;;;15.27;;
73023;SDS011;61199;47.526;8.538;2023-02-28T15:38:33;25.17;;;14.20;;
73023;SDS011;61199;47.526;8.538;2023-02-28T15:41:01;29.80;;;15.70;;
73023;SDS011;61199;47.526;8.538;2023-02-28T15:43:35;28.67;;;16.30;;
73023;SDS011;61199;47.526;8.538;2023-02-28T15:46:06;29.53;;;15.10;;
73023;SDS011;61199;47.526;8.538;2023-02-28T15:48:57;29.20;;;16.53;;
73023;SDS011;61199;47.526;8.538;2023-02-28T15:51:24;24.90;;;15.47;;
73023;SDS011;61199;47.526;8.538;2023-02-28T15:53:59;30.13;;;15.53;;
73023;SDS011;61199;47.526;8.538;2023-02-28T15:56:31;28.20;;;16.07;;
73023;SDS011;61199;47.526;8.538;2023-02-28T15:59:03;28.00;;;15.47;;
73023;SDS011;61199;47.526;8.538;2023-02-28T16:01:32;27.47;;;14.50;;
73023;SDS011;61199;47.526;8.538;2023-02-28T16:04:01;26.70;;;15.33;;
73023;SDS011;61199;47.526;8.538;2023-02-28T16:09:05;27.27;;;15.10;;
73023;SDS011;61199;47.526;8.538;2023-02-28T16:11:36;26.50;;;14.60;;
73023;SDS011;61199;47.526;8.538;2023-02-28T16:14:10;26.27;;;16.20;;
73023;SDS011;61199;47.526;8.538;2023-02-28T16:16:43;27.17;;;15.63;;
73023;SDS011;61199;47.526;8.538;2023-02-28T16:19:12;28.07;;;15.90;;
73023;SDS011;61199;47.526;8.538;2023-02-28T16:21:39;31.57;;;15.73;;
73023;SDS011;61199;47.526;8.538;2023-02-28T16:24:05;30.80;;;17.13;;
73023;SDS011;61199;47.526;8.538;2023-02-28T16:26:32;29.03;;;16.47;;
73023;SDS011;61199;47.526;8.538;2023-02-28T16:29:00;36.03;;;16.57;;
73023;SDS011;61199;47.526;8.538;2023-02-28T16:31:27;31.83;;;17.47;;
73023;SDS011;61199;47.526;8.538;2023-02-28T16:33:55;29.17;;;16.13;;
73023;SDS011;61199;47.526;8.538;2023-02-28T16:36:24;28.40;;;14.80;;
73023;SDS011;61199;47.526;8.538;2023-02-28T16:38:54;29.83;;;17.27;;
73023;SDS011;61199;47.526;8.538;2023-02-28T16:41:22;28.10;;;16.57;;
73023;SDS011;61199;47.526;8.538;2023-02-28T16:43:52;30.43;;;16.70;;
73023;SDS011;61199;47.526;8.538;2023-02-28T16:46:25;30.30;;;16.00;;
73023;SDS011;61199;47.526;8.538;2023-02-28T16:48:56;26.20;;;15.70;;
73023;SDS011;61199;47.526;8.538;2023-02-28T16:51:22;28.73;;;15.90;;
73023;SDS011;61199;47.526;8.538;2023-02-28T16:53:50;31.70;;;18.30;;
73023;SDS011;61199;47.526;8.538;2023-02-28T16:56:17;27.37;;;15.97;;
73023;SDS011;61199;47.526;8.538;2023-02-28T16:58:46;29.20;;;16.20;;
73023;SDS011;61199;47.526;8.538;2023-02-28T17:01:13;31.30;;;17.57;;
73023;SDS011;61199;47.526;8.538;2023-02-28T17:03:43;30.80;;;16.87;;
73023;SDS011;61199;47.526;8.538;2023-02-28T17:06:15;33.27;;;17.40;;
73023;SDS011;61199;47.526;8.538;2023-02-28T17:08:45;31.20;;;18.23;;
73023;SDS011;61199;47.526;8.538;2023-02-28T17:11:11;36.87;;;18.93;;